Flight Track Log - Related Links

Times and Time Zones

All times are in EDT time to prevent confusion due to time zone crossing. See the ASQ5740 flight status page for this flight to view local times or setup timezone preferences in your user account.

Time Position Orientation Groundspeed Altitude Reporting Facility
EDT Latitude Longitude Course Direction KTS MPH feet Rate Location/Type
Sun 08:27:51 AM 38.9500 -77.5167 303° West 170 196 1,600  Level Potomac TRACON
Sun 08:28:52 AM 38.9833 -77.5833 303° West 237 273 3,600 2,143 Climbing Potomac TRACON
Sun 08:29:43 AM 39.0297 -77.6278 323° Northwest 290 334 5,600 2,196 Climbing Washington Center
Sun 08:30:44 AM 39.0872 -77.6722 329° Northwest 309 356 7,700 2,380 Climbing Washington Center
Sun 08:31:44 AM 39.1722 -77.6906 351° North 309 356 10,400 1,983 Climbing Washington Center
Sun 08:32:45 AM 39.2606 -77.6528 18° North 284 327 11,700 1,339 Climbing Washington Center
Sun 08:33:45 AM 39.3550 -77.6100 19° North 320 368 13,100 1,424 Climbing Washington Center
Sun 08:34:43 AM 39.4556 -77.5831 12° North 342 394 14,500 1,361 Climbing Washington Center
Sun 08:35:44 AM 39.5269 -77.6794 314° West 329 379 15,800 1,190 Climbing Washington Center
Sun 08:36:44 AM 39.5369 -77.8194 275° West 308 354 16,900 1,041 Climbing Washington Center
Sun 08:37:45 AM 39.5656 -77.9550 285° West 348 400 17,900 1,160 Climbing Washington Center
Sun 08:38:43 AM 39.6025 -78.0856 290° West 372 428 19,200 1,059 Climbing Washington Center
Sun 08:39:44 AM 39.6414 -78.2136 292° West 385 443 20,000 475 Climbing Washington Center
Sun 08:40:24 AM 39.6781 -78.3281 293° West 397 457 20,000  Level Cleveland Center
Sun 08:41:24 AM 39.7203 -78.4697 291° West 410 472 20,000 350 Level Cleveland Center
Sun 08:42:24 AM 39.7625 -78.6117 291° West 420 483 20,700 850 Climbing Cleveland Center
Sun 08:43:24 AM 39.8003 -78.7536 289° West 420 483 21,700 650 Climbing Cleveland Center
Sun 08:44:24 AM 39.8400 -78.8933 290° West 420 483 22,000 300 Climbing Cleveland Center
Sun 08:45:24 AM 39.8878 -79.0408 293° West 430 495 22,300 550 Climbing Cleveland Center
Sun 08:46:24 AM 39.9272 -79.1836 290° West 430 495 23,100 800 Climbing Cleveland Center
Sun 08:47:24 AM 39.9686 -79.3261 291° West 430 495 23,900 650 Climbing Cleveland Center
Sun 08:48:24 AM 40.0283 -79.4581 301° West 425 489 24,400 650 Climbing Cleveland Center
Sun 08:49:24 AM 40.0942 -79.5844 304° West 425 489 25,200 800 Climbing Cleveland Center
Sun 08:50:24 AM 40.1597 -79.7139 304° West 425 489 26,000 400 Climbing Cleveland Center
Sun 08:51:24 AM 40.2253 -79.8461 303° West 425 489 26,000  Level Cleveland Center
Sun 08:52:24 AM 40.2950 -79.9814 304° West 441 507 26,000  Level Cleveland Center
Sun 08:53:24 AM 40.3603 -80.1200 302° West 448 516 26,000  Level Cleveland Center
Sun 08:54:24 AM 40.4314 -80.2611 304° West 453 521 26,000  Level Cleveland Center
Sun 08:55:24 AM 40.4986 -80.3864 305° West 458 527 26,000  Level Cleveland Center
Sun 08:56:24 AM 40.5694 -80.5256 304° West 463 533 26,000  Level Cleveland Center
Sun 08:57:24 AM 40.6383 -80.6681 303° West 458 527 26,000  Level Cleveland Center
Sun 08:58:24 AM 40.7089 -80.8078 304° West 458 527 26,000  Level Cleveland Center
Sun 08:59:24 AM 40.7775 -80.9478 303° West 458 527 26,000  Level Cleveland Center
Sun 09:00:24 AM 40.8519 -81.1075 302° West 463 533 26,000  Level Cleveland Center
Sun 09:01:24 AM 40.9200 -81.2508 302° West 458 527 26,000  Level Cleveland Center
Sun 09:02:24 AM 40.9900 -81.3919 303° West 458 527 26,000 -400 Level Cleveland Center
Sun 09:03:24 AM 41.0597 -81.5386 302° West 464 534 25,200 -700 Descending Cleveland Center
Sun 09:04:24 AM 41.1231 -81.6692 303° West 470 541 24,600 -600 Descending Cleveland Center
Sun 09:05:24 AM 41.1986 -81.8194 304° West 477 549 24,000 -300 Descending Cleveland Center
Sun 09:06:24 AM 41.2678 -81.9617 303° West 477 549 24,000 -200 Level Cleveland Center
Sun 09:07:24 AM 41.3369 -82.1042 303° West 471 542 23,600 -1,450 Descending Cleveland Center
Sun 09:08:24 AM 41.4161 -82.2611 304° West 471 542 21,100 -2,500 Descending Cleveland Center
Sun 09:09:24 AM 41.4953 -82.3961 308° West 471 542 18,600 -2,327 Descending Cleveland Center
Sun 09:10:02 AM 41.5442 -82.4697 312° West 436 502 17,300 -2,323 Descending Cleveland Center
Sun 09:10:57 AM 41.6069 -82.5797 307° West 391 450 15,000 -2,172 Descending Cleveland Center
Sun 09:11:58 AM 41.6717 -82.6903 308° West 379 436 13,100 -1,475 Descending Cleveland Center
Sun 09:12:59 AM 41.7406 -82.7956 311° West 370 426 12,000 -569 Descending Cleveland Center
Sun 09:13:54 AM 41.8078 -82.8786 317° Northwest 361 415 12,000  Level Cleveland Center
Sun 09:14:24 AM 41.8361 -82.9158 316° Northwest 361 415 12,000  Level Cleveland Center
Sun 09:14:54 AM 41.8831 -82.9678 321° Northwest 358 412 12,000  Level Cleveland Center
Sun 09:15:24 AM 41.9114 -83.0022 318° Northwest 356 410 12,000  Level Cleveland Center
Sun 09:15:55 AM 41.9561 -83.0569 318° Northwest 356 410 12,000  Level Cleveland Center
Sun 09:16:56 AM 42.0333 -83.1467 319° Northwest 344 396 12,000  Level Cleveland Center
Sun 09:17:57 AM 42.0986 -83.2108 324° Northwest 300 345 12,000 -984 Level Cleveland Center
Sun 09:18:58 AM 42.1819 -83.2228 354° North 306 352 10,000 -2,017 Descending Cleveland Center
Sun 09:19:53 AM 42.2536 -83.1836 22° Northeast 293 337 8,100 -2,017 Descending Cleveland Center
Sun 09:20:54 AM 42.3275 -83.1475 20° North 281 323 6,100 -2,066 Descending Cleveland Center
Sun 09:21:55 AM 42.3958 -83.1669 348° North 274 315 3,900 -2,164 Descending Cleveland Center

Login

Don't have an account? Register now (free) for customized features, flight alerts, and more!